sensor_id;sensor_type;location;lat;lon;timestamp;P1;durP1;ratioP1;P2;durP2;ratioP2
30571;SDS011;17348;50.948;10.696;2022-08-27T00:01:01;29.75;;;13.57;;
30571;SDS011;17348;50.948;10.696;2022-08-27T00:04:03;27.63;;;14.55;;
30571;SDS011;17348;50.948;10.696;2022-08-27T00:07:06;32.75;;;14.63;;
30571;SDS011;17348;50.948;10.696;2022-08-27T00:10:10;27.95;;;14.85;;
30571;SDS011;17348;50.948;10.696;2022-08-27T00:13:16;34.72;;;14.75;;
30571;SDS011;17348;50.948;10.696;2022-08-27T00:16:18;29.50;;;15.65;;
30571;SDS011;17348;50.948;10.696;2022-08-27T00:19:21;33.78;;;16.02;;
30571;SDS011;17348;50.948;10.696;2022-08-27T00:22:24;29.45;;;17.70;;
30571;SDS011;17348;50.948;10.696;2022-08-27T00:25:26;33.45;;;16.67;;
30571;SDS011;17348;50.948;10.696;2022-08-27T00:28:31;31.98;;;16.55;;
30571;SDS011;17348;50.948;10.696;2022-08-27T00:31:34;48.95;;;18.33;;
30571;SDS011;17348;50.948;10.696;2022-08-27T00:34:37;29.65;;;17.65;;
30571;SDS011;17348;50.948;10.696;2022-08-27T00:37:39;40.03;;;18.45;;
30571;SDS011;17348;50.948;10.696;2022-08-27T00:40:42;29.35;;;18.10;;
30571;SDS011;17348;50.948;10.696;2022-08-27T00:43:50;42.03;;;18.55;;
30571;SDS011;17348;50.948;10.696;2022-08-27T00:46:56;34.78;;;18.98;;
30571;SDS011;17348;50.948;10.696;2022-08-27T00:50:03;33.28;;;19.67;;
30571;SDS011;17348;50.948;10.696;2022-08-27T00:53:09;45.47;;;21.17;;
30571;SDS011;17348;50.948;10.696;2022-08-27T00:56:15;39.13;;;20.80;;
30571;SDS011;17348;50.948;10.696;2022-08-27T00:59:22;41.15;;;19.83;;
30571;SDS011;17348;50.948;10.696;2022-08-27T01:02:28;44.72;;;19.15;;
30571;SDS011;17348;50.948;10.696;2022-08-27T01:05:31;37.88;;;18.70;;
30571;SDS011;17348;50.948;10.696;2022-08-27T01:08:36;34.67;;;18.27;;
30571;SDS011;17348;50.948;10.696;2022-08-27T01:11:42;34.55;;;17.92;;
30571;SDS011;17348;50.948;10.696;2022-08-27T01:14:47;26.63;;;15.90;;
30571;SDS011;17348;50.948;10.696;2022-08-27T01:17:50;27.67;;;15.80;;
30571;SDS011;17348;50.948;10.696;2022-08-27T01:20:54;28.80;;;16.70;;
30571;SDS011;17348;50.948;10.696;2022-08-27T01:24:00;23.60;;;14.57;;
30571;SDS011;17348;50.948;10.696;2022-08-27T01:27:09;30.23;;;15.38;;
30571;SDS011;17348;50.948;10.696;2022-08-27T01:30:14;37.78;;;16.20;;
30571;SDS011;17348;50.948;10.696;2022-08-27T01:33:20;32.92;;;14.45;;
30571;SDS011;17348;50.948;10.696;2022-08-27T01:36:23;33.10;;;15.40;;
30571;SDS011;17348;50.948;10.696;2022-08-27T01:39:25;29.52;;;14.02;;
30571;SDS011;17348;50.948;10.696;2022-08-27T01:42:30;30.95;;;16.25;;
30571;SDS011;17348;50.948;10.696;2022-08-27T01:45:35;28.40;;;16.23;;
30571;SDS011;17348;50.948;10.696;2022-08-27T01:48:39;32.75;;;15.95;;
30571;SDS011;17348;50.948;10.696;2022-08-27T01:51:41;29.95;;;16.33;;
30571;SDS011;17348;50.948;10.696;2022-08-27T01:54:43;37.20;;;17.20;;
30571;SDS011;17348;50.948;10.696;2022-08-27T01:57:47;38.92;;;16.77;;
30571;SDS011;17348;50.948;10.696;2022-08-27T02:00:51;34.65;;;16.63;;
30571;SDS011;17348;50.948;10.696;2022-08-27T02:03:55;33.58;;;17.90;;
30571;SDS011;17348;50.948;10.696;2022-08-27T02:06:58;39.92;;;17.63;;
30571;SDS011;17348;50.948;10.696;2022-08-27T02:10:00;41.40;;;19.02;;
30571;SDS011;17348;50.948;10.696;2022-08-27T02:13:04;39.55;;;18.60;;
30571;SDS011;17348;50.948;10.696;2022-08-27T02:16:07;37.90;;;18.88;;
30571;SDS011;17348;50.948;10.696;2022-08-27T02:19:10;41.05;;;17.48;;
30571;SDS011;17348;50.948;10.696;2022-08-27T02:22:12;30.73;;;16.73;;
30571;SDS011;17348;50.948;10.696;2022-08-27T02:25:15;29.10;;;15.57;;
30571;SDS011;17348;50.948;10.696;2022-08-27T02:28:21;29.33;;;13.35;;
30571;SDS011;17348;50.948;10.696;2022-08-27T02:31:23;29.15;;;15.13;;
30571;SDS011;17348;50.948;10.696;2022-08-27T02:34:25;32.67;;;14.57;;
30571;SDS011;17348;50.948;10.696;2022-08-27T02:37:28;21.48;;;12.32;;
30571;SDS011;17348;50.948;10.696;2022-08-27T02:40:30;19.10;;;10.77;;
30571;SDS011;17348;50.948;10.696;2022-08-27T02:43:34;17.20;;;10.32;;
30571;SDS011;17348;50.948;10.696;2022-08-27T02:46:36;23.25;;;10.30;;
30571;SDS011;17348;50.948;10.696;2022-08-27T02:49:39;19.45;;;10.95;;
30571;SDS011;17348;50.948;10.696;2022-08-27T02:52:41;25.20;;;10.63;;
30571;SDS011;17348;50.948;10.696;2022-08-27T02:55:45;16.92;;;9.23;;
30571;SDS011;17348;50.948;10.696;2022-08-27T02:58:49;22.73;;;10.13;;
30571;SDS011;17348;50.948;10.696;2022-08-27T03:01:51;19.88;;;9.85;;
30571;SDS011;17348;50.948;10.696;2022-08-27T03:04:54;17.17;;;10.52;;
30571;SDS011;17348;50.948;10.696;2022-08-27T03:07:56;16.70;;;10.07;;
30571;SDS011;17348;50.948;10.696;2022-08-27T03:10:59;20.30;;;10.25;;
30571;SDS011;17348;50.948;10.696;2022-08-27T03:14:02;18.40;;;9.63;;
30571;SDS011;17348;50.948;10.696;2022-08-27T03:17:05;18.05;;;10.18;;
30571;SDS011;17348;50.948;10.696;2022-08-27T03:20:21;23.27;;;10.60;;
30571;SDS011;17348;50.948;10.696;2022-08-27T03:23:25;19.25;;;10.90;;
30571;SDS011;17348;50.948;10.696;2022-08-27T03:26:32;23.40;;;11.82;;
30571;SDS011;17348;50.948;10.696;2022-08-27T03:29:36;17.48;;;10.95;;
30571;SDS011;17348;50.948;10.696;2022-08-27T03:32:38;20.85;;;11.73;;
30571;SDS011;17348;50.948;10.696;2022-08-27T03:35:41;16.25;;;9.48;;
30571;SDS011;17348;50.948;10.696;2022-08-27T03:38:43;23.45;;;10.90;;
30571;SDS011;17348;50.948;10.696;2022-08-27T03:41:46;20.17;;;10.95;;
30571;SDS011;17348;50.948;10.696;2022-08-27T03:44:49;24.48;;;11.52;;
30571;SDS011;17348;50.948;10.696;2022-08-27T03:47:52;20.95;;;10.55;;
30571;SDS011;17348;50.948;10.696;2022-08-27T03:50:54;18.38;;;11.73;;
30571;SDS011;17348;50.948;10.696;2022-08-27T03:53:56;17.23;;;10.85;;
30571;SDS011;17348;50.948;10.696;2022-08-27T03:56:59;16.35;;;10.15;;
30571;SDS011;17348;50.948;10.696;2022-08-27T04:00:03;22.40;;;10.90;;
30571;SDS011;17348;50.948;10.696;2022-08-27T04:03:06;18.45;;;10.82;;
30571;SDS011;17348;50.948;10.696;2022-08-27T04:06:09;15.20;;;9.52;;
30571;SDS011;17348;50.948;10.696;2022-08-27T04:09:11;15.57;;;9.88;;
30571;SDS011;17348;50.948;10.696;2022-08-27T04:12:13;24.65;;;11.48;;
30571;SDS011;17348;50.948;10.696;2022-08-27T04:15:17;26.27;;;11.80;;
30571;SDS011;17348;50.948;10.696;2022-08-27T04:18:19;17.25;;;10.88;;
30571;SDS011;17348;50.948;10.696;2022-08-27T04:21:21;17.92;;;10.73;;
30571;SDS011;17348;50.948;10.696;2022-08-27T04:24:24;27.02;;;11.73;;
30571;SDS011;17348;50.948;10.696;2022-08-27T04:27:26;21.77;;;11.43;;
30571;SDS011;17348;50.948;10.696;2022-08-27T04:30:30;22.35;;;11.52;;
30571;SDS011;17348;50.948;10.696;2022-08-27T04:33:32;20.52;;;10.93;;
30571;SDS011;17348;50.948;10.696;2022-08-27T04:36:35;28.02;;;13.55;;
30571;SDS011;17348;50.948;10.696;2022-08-27T04:39:37;26.25;;;12.88;;
30571;SDS011;17348;50.948;10.696;2022-08-27T04:42:39;26.00;;;13.25;;
30571;SDS011;17348;50.948;10.696;2022-08-27T04:45:43;21.60;;;12.88;;
30571;SDS011;17348;50.948;10.696;2022-08-27T04:48:47;24.23;;;13.23;;
30571;SDS011;17348;50.948;10.696;2022-08-27T04:51:49;26.58;;;13.32;;
30571;SDS011;17348;50.948;10.696;2022-08-27T04:54:51;28.73;;;13.35;;
30571;SDS011;17348;50.948;10.696;2022-08-27T04:57:54;24.70;;;13.70;;
30571;SDS011;17348;50.948;10.696;2022-08-27T05:00:58;22.40;;;13.48;;
30571;SDS011;17348;50.948;10.696;2022-08-27T05:04:01;31.15;;;14.65;;
30571;SDS011;17348;50.948;10.696;2022-08-27T05:07:04;33.35;;;17.05;;
30571;SDS011;17348;50.948;10.696;2022-08-27T05:10:07;30.08;;;15.98;;
30571;SDS011;17348;50.948;10.696;2022-08-27T05:13:09;28.63;;;15.23;;
30571;SDS011;17348;50.948;10.696;2022-08-27T05:16:15;28.10;;;15.10;;
30571;SDS011;17348;50.948;10.696;2022-08-27T05:19:19;30.02;;;15.88;;
30571;SDS011;17348;50.948;10.696;2022-08-27T05:22:21;28.60;;;15.57;;
30571;SDS011;17348;50.948;10.696;2022-08-27T05:25:24;26.65;;;14.73;;
30571;SDS011;17348;50.948;10.696;2022-08-27T05:28:27;26.10;;;14.57;;
30571;SDS011;17348;50.948;10.696;2022-08-27T05:31:31;28.80;;;14.80;;
30571;SDS011;17348;50.948;10.696;2022-08-27T05:34:34;25.95;;;14.23;;
30571;SDS011;17348;50.948;10.696;2022-08-27T05:37:36;27.23;;;15.55;;
30571;SDS011;17348;50.948;10.696;2022-08-27T05:40:38;27.90;;;14.13;;
30571;SDS011;17348;50.948;10.696;2022-08-27T05:43:41;27.02;;;12.18;;
30571;SDS011;17348;50.948;10.696;2022-08-27T05:46:46;20.38;;;12.10;;
30571;SDS011;17348;50.948;10.696;2022-08-27T05:49:50;23.83;;;12.43;;
30571;SDS011;17348;50.948;10.696;2022-08-27T05:52:53;22.52;;;12.13;;
30571;SDS011;17348;50.948;10.696;2022-08-27T05:55:55;24.60;;;12.93;;
30571;SDS011;17348;50.948;10.696;2022-08-27T05:58:57;18.52;;;12.25;;
30571;SDS011;17348;50.948;10.696;2022-08-27T06:02:18;27.55;;;12.95;;
30571;SDS011;17348;50.948;10.696;2022-08-27T06:05:21;20.38;;;12.23;;
30571;SDS011;17348;50.948;10.696;2022-08-27T06:08:23;26.27;;;12.63;;
30571;SDS011;17348;50.948;10.696;2022-08-27T06:11:25;21.23;;;10.55;;
30571;SDS011;17348;50.948;10.696;2022-08-27T06:14:35;17.15;;;10.10;;
30571;SDS011;17348;50.948;10.696;2022-08-27T06:17:41;19.17;;;10.55;;
30571;SDS011;17348;50.948;10.696;2022-08-27T06:20:43;17.20;;;9.88;;
30571;SDS011;17348;50.948;10.696;2022-08-27T06:23:46;17.08;;;9.32;;
30571;SDS011;17348;50.948;10.696;2022-08-27T06:26:48;19.25;;;10.18;;
30571;SDS011;17348;50.948;10.696;2022-08-27T06:29:50;17.52;;;9.30;;
30571;SDS011;17348;50.948;10.696;2022-08-27T06:32:54;16.20;;;8.45;;
30571;SDS011;17348;50.948;10.696;2022-08-27T06:35:57;17.15;;;8.52;;
30571;SDS011;17348;50.948;10.696;2022-08-27T06:39:00;15.93;;;9.15;;
30571;SDS011;17348;50.948;10.696;2022-08-27T06:42:02;18.85;;;9.13;;
30571;SDS011;17348;50.948;10.696;2022-08-27T06:45:05;24.50;;;10.65;;
30571;SDS011;17348;50.948;10.696;2022-08-27T06:48:09;18.65;;;9.35;;
30571;SDS011;17348;50.948;10.696;2022-08-27T06:51:12;20.33;;;9.50;;
30571;SDS011;17348;50.948;10.696;2022-08-27T06:54:17;15.88;;;9.10;;
30571;SDS011;17348;50.948;10.696;2022-08-27T06:57:19;22.77;;;10.30;;
30571;SDS011;17348;50.948;10.696;2022-08-27T07:00:24;16.15;;;9.57;;
30571;SDS011;17348;50.948;10.696;2022-08-27T07:03:27;15.80;;;9.82;;
30571;SDS011;17348;50.948;10.696;2022-08-27T07:06:30;79.88;;;13.65;;
30571;SDS011;17348;50.948;10.696;2022-08-27T07:09:33;16.25;;;8.60;;
30571;SDS011;17348;50.948;10.696;2022-08-27T07:12:36;14.43;;;8.10;;
30571;SDS011;17348;50.948;10.696;2022-08-27T07:15:38;15.50;;;8.57;;
30571;SDS011;17348;50.948;10.696;2022-08-27T07:18:42;14.80;;;8.23;;
30571;SDS011;17348;50.948;10.696;2022-08-27T07:21:44;12.38;;;7.47;;
30571;SDS011;17348;50.948;10.696;2022-08-27T07:24:47;15.40;;;7.35;;
30571;SDS011;17348;50.948;10.696;2022-08-27T07:27:51;14.80;;;8.63;;
30571;SDS011;17348;50.948;10.696;2022-08-27T07:30:53;20.00;;;7.60;;
30571;SDS011;17348;50.948;10.696;2022-08-27T07:33:57;14.35;;;8.38;;
30571;SDS011;17348;50.948;10.696;2022-08-27T07:36:59;13.02;;;7.78;;
30571;SDS011;17348;50.948;10.696;2022-08-27T07:40:02;13.63;;;7.32;;
30571;SDS011;17348;50.948;10.696;2022-08-27T07:43:06;12.30;;;6.95;;
30571;SDS011;17348;50.948;10.696;2022-08-27T07:46:26;15.18;;;7.20;;
30571;SDS011;17348;50.948;10.696;2022-08-27T07:49:30;12.85;;;6.65;;
30571;SDS011;17348;50.948;10.696;2022-08-27T07:52:34;15.68;;;8.20;;
30571;SDS011;17348;50.948;10.696;2022-08-27T07:55:37;14.90;;;7.78;;
30571;SDS011;17348;50.948;10.696;2022-08-27T07:58:40;12.75;;;6.80;;
30571;SDS011;17348;50.948;10.696;2022-08-27T08:01:43;17.63;;;7.13;;
30571;SDS011;17348;50.948;10.696;2022-08-27T08:04:46;14.88;;;7.88;;
30571;SDS011;17348;50.948;10.696;2022-08-27T08:07:49;12.18;;;6.80;;
30571;SDS011;17348;50.948;10.696;2022-08-27T08:10:54;16.83;;;7.72;;
30571;SDS011;17348;50.948;10.696;2022-08-27T08:13:57;24.55;;;8.23;;
30571;SDS011;17348;50.948;10.696;2022-08-27T08:17:02;14.50;;;8.50;;
30571;SDS011;17348;50.948;10.696;2022-08-27T08:20:07;14.52;;;7.80;;
30571;SDS011;17348;50.948;10.696;2022-08-27T08:23:11;11.73;;;7.00;;
30571;SDS011;17348;50.948;10.696;2022-08-27T08:26:15;15.27;;;7.97;;
30571;SDS011;17348;50.948;10.696;2022-08-27T08:29:18;14.10;;;7.78;;
30571;SDS011;17348;50.948;10.696;2022-08-27T08:32:20;14.82;;;8.00;;
30571;SDS011;17348;50.948;10.696;2022-08-27T08:35:24;13.20;;;8.32;;
30571;SDS011;17348;50.948;10.696;2022-08-27T08:38:26;13.82;;;7.90;;
30571;SDS011;17348;50.948;10.696;2022-08-27T08:41:35;11.18;;;7.63;;
30571;SDS011;17348;50.948;10.696;2022-08-27T08:44:41;11.75;;;6.47;;
30571;SDS011;17348;50.948;10.696;2022-08-27T08:47:49;11.07;;;6.40;;
30571;SDS011;17348;50.948;10.696;2022-08-27T08:50:58;18.52;;;7.88;;
30571;SDS011;17348;50.948;10.696;2022-08-27T08:54:05;14.27;;;7.00;;
30571;SDS011;17348;50.948;10.696;2022-08-27T08:57:13;17.95;;;6.95;;
30571;SDS011;17348;50.948;10.696;2022-08-27T09:00:20;12.50;;;8.05;;
30571;SDS011;17348;50.948;10.696;2022-08-27T09:03:24;15.70;;;6.93;;
30571;SDS011;17348;50.948;10.696;2022-08-27T09:06:31;13.27;;;6.82;;
30571;SDS011;17348;50.948;10.696;2022-08-27T09:09:42;12.93;;;6.72;;
30571;SDS011;17348;50.948;10.696;2022-08-27T09:12:48;17.67;;;7.40;;
30571;SDS011;17348;50.948;10.696;2022-08-27T09:15:54;14.90;;;6.35;;
30571;SDS011;17348;50.948;10.696;2022-08-27T09:19:00;13.27;;;5.70;;
30571;SDS011;17348;50.948;10.696;2022-08-27T09:22:08;11.80;;;4.85;;
30571;SDS011;17348;50.948;10.696;2022-08-27T09:25:18;10.80;;;4.78;;
30571;SDS011;17348;50.948;10.696;2022-08-27T09:28:26;8.98;;;4.40;;
30571;SDS011;17348;50.948;10.696;2022-08-27T09:31:52;6.45;;;4.07;;
30571;SDS011;17348;50.948;10.696;2022-08-27T09:34:59;9.63;;;4.83;;
30571;SDS011;17348;50.948;10.696;2022-08-27T09:38:08;7.00;;;3.20;;
30571;SDS011;17348;50.948;10.696;2022-08-27T09:41:17;4.20;;;2.88;;
30571;SDS011;17348;50.948;10.696;2022-08-27T09:47:26;3.30;;;2.25;;
30571;SDS011;17348;50.948;10.696;2022-08-27T09:50:30;3.65;;;2.50;;
30571;SDS011;17348;50.948;10.696;2022-08-27T09:53:39;4.20;;;2.53;;
30571;SDS011;17348;50.948;10.696;2022-08-27T09:56:45;4.07;;;2.65;;
30571;SDS011;17348;50.948;10.696;2022-08-27T09:59:50;5.03;;;3.22;;
30571;SDS011;17348;50.948;10.696;2022-08-27T10:02:54;4.45;;;3.08;;
30571;SDS011;17348;50.948;10.696;2022-08-27T10:06:00;6.15;;;3.95;;
30571;SDS011;17348;50.948;10.696;2022-08-27T10:09:07;8.88;;;4.25;;
30571;SDS011;17348;50.948;10.696;2022-08-27T10:12:15;7.32;;;4.95;;
30571;SDS011;17348;50.948;10.696;2022-08-27T10:15:22;8.88;;;4.38;;
30571;SDS011;17348;50.948;10.696;2022-08-27T10:18:31;6.93;;;4.70;;
30571;SDS011;17348;50.948;10.696;2022-08-27T10:21:42;8.32;;;4.55;;
30571;SDS011;17348;50.948;10.696;2022-08-27T10:24:57;8.43;;;4.65;;
30571;SDS011;17348;50.948;10.696;2022-08-27T10:28:14;8.52;;;4.45;;
30571;SDS011;17348;50.948;10.696;2022-08-27T10:31:29;8.02;;;4.60;;
30571;SDS011;17348;50.948;10.696;2022-08-27T10:37:45;6.47;;;3.83;;
30571;SDS011;17348;50.948;10.696;2022-08-27T10:41:00;9.23;;;3.90;;
30571;SDS011;17348;50.948;10.696;2022-08-27T10:44:09;5.35;;;3.70;;
30571;SDS011;17348;50.948;10.696;2022-08-27T10:47:34;10.88;;;4.63;;
30571;SDS011;17348;50.948;10.696;2022-08-27T10:50:47;6.47;;;3.80;;
30571;SDS011;17348;50.948;10.696;2022-08-27T10:53:52;5.03;;;3.58;;
30571;SDS011;17348;50.948;10.696;2022-08-27T10:57:02;8.25;;;4.00;;
30571;SDS011;17348;50.948;10.696;2022-08-27T11:00:10;5.82;;;3.58;;
30571;SDS011;17348;50.948;10.696;2022-08-27T11:03:17;12.60;;;3.67;;
30571;SDS011;17348;50.948;10.696;2022-08-27T11:06:25;17.40;;;9.55;;
30571;SDS011;17348;50.948;10.696;2022-08-27T11:09:33;6.03;;;4.22;;
30571;SDS011;17348;50.948;10.696;2022-08-27T11:12:40;6.00;;;3.63;;
30571;SDS011;17348;50.948;10.696;2022-08-27T11:15:45;5.35;;;3.78;;
30571;SDS011;17348;50.948;10.696;2022-08-27T11:18:50;9.10;;;3.95;;
30571;SDS011;17348;50.948;10.696;2022-08-27T11:21:59;9.02;;;3.92;;
30571;SDS011;17348;50.948;10.696;2022-08-27T11:25:10;10.73;;;6.68;;
30571;SDS011;17348;50.948;10.696;2022-08-27T11:28:29;9.02;;;5.35;;
30571;SDS011;17348;50.948;10.696;2022-08-27T11:31:38;16.10;;;6.03;;
30571;SDS011;17348;50.948;10.696;2022-08-27T11:34:50;8.60;;;4.75;;
30571;SDS011;17348;50.948;10.696;2022-08-27T11:38:03;10.35;;;5.72;;
30571;SDS011;17348;50.948;10.696;2022-08-27T11:41:32;9.75;;;6.45;;
30571;SDS011;17348;50.948;10.696;2022-08-27T11:44:46;12.95;;;5.35;;
30571;SDS011;17348;50.948;10.696;2022-08-27T11:47:50;11.65;;;5.20;;
30571;SDS011;17348;50.948;10.696;2022-08-27T11:50:55;14.82;;;7.13;;
30571;SDS011;17348;50.948;10.696;2022-08-27T11:54:02;13.48;;;6.85;;
30571;SDS011;17348;50.948;10.696;2022-08-27T11:57:12;14.38;;;7.93;;
30571;SDS011;17348;50.948;10.696;2022-08-27T12:00:18;13.75;;;8.68;;
30571;SDS011;17348;50.948;10.696;2022-08-27T12:03:29;17.85;;;7.95;;
30571;SDS011;17348;50.948;10.696;2022-08-27T12:06:39;18.20;;;8.55;;
30571;SDS011;17348;50.948;10.696;2022-08-27T12:09:46;18.25;;;9.85;;
30571;SDS011;17348;50.948;10.696;2022-08-27T12:13:05;22.45;;;9.23;;
30571;SDS011;17348;50.948;10.696;2022-08-27T12:16:19;16.33;;;8.68;;
30571;SDS011;17348;50.948;10.696;2022-08-27T12:19:32;24.38;;;10.05;;
30571;SDS011;17348;50.948;10.696;2022-08-27T12:22:49;21.65;;;9.48;;
30571;SDS011;17348;50.948;10.696;2022-08-27T12:26:28;18.85;;;9.25;;
30571;SDS011;17348;50.948;10.696;2022-08-27T12:29:38;12.90;;;7.97;;
30571;SDS011;17348;50.948;10.696;2022-08-27T12:32:44;15.43;;;7.90;;
30571;SDS011;17348;50.948;10.696;2022-08-27T12:35:50;12.02;;;7.50;;
30571;SDS011;17348;50.948;10.696;2022-08-27T12:38:56;23.70;;;8.52;;
30571;SDS011;17348;50.948;10.696;2022-08-27T12:41:59;15.00;;;8.68;;
30571;SDS011;17348;50.948;10.696;2022-08-27T12:45:02;15.65;;;7.97;;
30571;SDS011;17348;50.948;10.696;2022-08-27T12:48:07;15.15;;;9.07;;
30571;SDS011;17348;50.948;10.696;2022-08-27T12:51:11;12.18;;;7.88;;
30571;SDS011;17348;50.948;10.696;2022-08-27T12:54:19;12.57;;;7.97;;
30571;SDS011;17348;50.948;10.696;2022-08-27T12:57:33;14.40;;;7.68;;
30571;SDS011;17348;50.948;10.696;2022-08-27T13:00:55;20.20;;;8.05;;
30571;SDS011;17348;50.948;10.696;2022-08-27T13:04:05;13.70;;;7.70;;
30571;SDS011;17348;50.948;10.696;2022-08-27T13:07:10;13.68;;;8.25;;
30571;SDS011;17348;50.948;10.696;2022-08-27T13:10:14;16.63;;;8.15;;
30571;SDS011;17348;50.948;10.696;2022-08-27T13:13:18;19.60;;;8.98;;
30571;SDS011;17348;50.948;10.696;2022-08-27T13:16:22;14.32;;;7.80;;
30571;SDS011;17348;50.948;10.696;2022-08-27T13:19:27;17.67;;;8.00;;
30571;SDS011;17348;50.948;10.696;2022-08-27T13:22:35;15.43;;;7.57;;
30571;SDS011;17348;50.948;10.696;2022-08-27T13:25:40;13.45;;;7.72;;
30571;SDS011;17348;50.948;10.696;2022-08-27T13:28:53;27.83;;;8.18;;
30571;SDS011;17348;50.948;10.696;2022-08-27T13:31:56;16.95;;;8.23;;
30571;SDS011;17348;50.948;10.696;2022-08-27T13:35:01;14.43;;;7.43;;
30571;SDS011;17348;50.948;10.696;2022-08-27T13:38:05;13.32;;;7.15;;
30571;SDS011;17348;50.948;10.696;2022-08-27T13:41:08;13.40;;;7.93;;
30571;SDS011;17348;50.948;10.696;2022-08-27T13:44:13;16.50;;;7.82;;
30571;SDS011;17348;50.948;10.696;2022-08-27T13:47:22;19.70;;;8.23;;
30571;SDS011;17348;50.948;10.696;2022-08-27T13:50:28;18.50;;;8.43;;
30571;SDS011;17348;50.948;10.696;2022-08-27T13:53:32;21.85;;;8.02;;
30571;SDS011;17348;50.948;10.696;2022-08-27T14:00:06;14.00;;;7.93;;
30571;SDS011;17348;50.948;10.696;2022-08-27T14:03:21;15.20;;;7.70;;
30571;SDS011;17348;50.948;10.696;2022-08-27T14:06:28;15.85;;;8.07;;
30571;SDS011;17348;50.948;10.696;2022-08-27T14:09:39;15.25;;;7.93;;
30571;SDS011;17348;50.948;10.696;2022-08-27T14:12:45;19.17;;;8.07;;
30571;SDS011;17348;50.948;10.696;2022-08-27T14:15:57;13.93;;;7.88;;
30571;SDS011;17348;50.948;10.696;2022-08-27T14:19:04;16.02;;;8.73;;
30571;SDS011;17348;50.948;10.696;2022-08-27T14:22:10;14.98;;;7.80;;
30571;SDS011;17348;50.948;10.696;2022-08-27T14:25:12;25.23;;;9.18;;
30571;SDS011;17348;50.948;10.696;2022-08-27T14:28:15;12.07;;;8.02;;
30571;SDS011;17348;50.948;10.696;2022-08-27T14:31:18;21.67;;;8.68;;
30571;SDS011;17348;50.948;10.696;2022-08-27T14:34:20;22.23;;;8.95;;
30571;SDS011;17348;50.948;10.696;2022-08-27T14:37:24;15.73;;;8.60;;
30571;SDS011;17348;50.948;10.696;2022-08-27T14:40:26;16.55;;;9.07;;
30571;SDS011;17348;50.948;10.696;2022-08-27T14:43:28;22.23;;;8.32;;
30571;SDS011;17348;50.948;10.696;2022-08-27T14:46:32;19.00;;;9.52;;
30571;SDS011;17348;50.948;10.696;2022-08-27T14:49:37;22.35;;;8.95;;
30571;SDS011;17348;50.948;10.696;2022-08-27T14:52:44;23.15;;;9.90;;
30571;SDS011;17348;50.948;10.696;2022-08-27T14:55:47;21.40;;;8.82;;
30571;SDS011;17348;50.948;10.696;2022-08-27T14:58:50;18.20;;;8.77;;
30571;SDS011;17348;50.948;10.696;2022-08-27T15:01:53;20.00;;;9.90;;
30571;SDS011;17348;50.948;10.696;2022-08-27T15:04:56;14.68;;;8.10;;
30571;SDS011;17348;50.948;10.696;2022-08-27T15:08:01;28.02;;;9.70;;
30571;SDS011;17348;50.948;10.696;2022-08-27T15:11:03;23.50;;;10.20;;
30571;SDS011;17348;50.948;10.696;2022-08-27T15:14:08;22.67;;;10.15;;
30571;SDS011;17348;50.948;10.696;2022-08-27T15:17:15;16.80;;;9.73;;
30571;SDS011;17348;50.948;10.696;2022-08-27T15:20:18;20.30;;;9.55;;
30571;SDS011;17348;50.948;10.696;2022-08-27T15:23:21;24.27;;;10.07;;
30571;SDS011;17348;50.948;10.696;2022-08-27T15:26:24;21.95;;;11.45;;
30571;SDS011;17348;50.948;10.696;2022-08-27T15:29:26;20.40;;;10.90;;
30571;SDS011;17348;50.948;10.696;2022-08-27T15:32:29;21.55;;;11.48;;
30571;SDS011;17348;50.948;10.696;2022-08-27T15:35:33;22.95;;;10.52;;
30571;SDS011;17348;50.948;10.696;2022-08-27T15:38:36;23.25;;;11.05;;
30571;SDS011;17348;50.948;10.696;2022-08-27T15:41:39;21.00;;;11.20;;
30571;SDS011;17348;50.948;10.696;2022-08-27T15:44:43;28.92;;;11.70;;
30571;SDS011;17348;50.948;10.696;2022-08-27T15:47:47;25.63;;;12.35;;
30571;SDS011;17348;50.948;10.696;2022-08-27T15:50:49;26.65;;;13.13;;
30571;SDS011;17348;50.948;10.696;2022-08-27T15:53:53;25.17;;;12.45;;
30571;SDS011;17348;50.948;10.696;2022-08-27T15:56:56;28.83;;;12.18;;
30571;SDS011;17348;50.948;10.696;2022-08-27T15:59:59;23.95;;;11.88;;
30571;SDS011;17348;50.948;10.696;2022-08-27T16:03:02;23.95;;;12.98;;
30571;SDS011;17348;50.948;10.696;2022-08-27T16:06:08;23.48;;;10.82;;
30571;SDS011;17348;50.948;10.696;2022-08-27T16:09:12;23.60;;;10.75;;
30571;SDS011;17348;50.948;10.696;2022-08-27T16:12:14;20.60;;;10.63;;
30571;SDS011;17348;50.948;10.696;2022-08-27T16:15:17;17.00;;;10.65;;
30571;SDS011;17348;50.948;10.696;2022-08-27T16:18:20;19.70;;;9.95;;
30571;SDS011;17348;50.948;10.696;2022-08-27T16:21:26;14.07;;;8.15;;
30571;SDS011;17348;50.948;10.696;2022-08-27T16:24:31;19.77;;;9.23;;
30571;SDS011;17348;50.948;10.696;2022-08-27T16:27:33;14.85;;;8.35;;
30571;SDS011;17348;50.948;10.696;2022-08-27T16:30:37;15.57;;;7.65;;
30571;SDS011;17348;50.948;10.696;2022-08-27T16:33:39;16.88;;;8.88;;
30571;SDS011;17348;50.948;10.696;2022-08-27T16:36:42;18.08;;;9.30;;
30571;SDS011;17348;50.948;10.696;2022-08-27T16:39:46;17.05;;;8.98;;
30571;SDS011;17348;50.948;10.696;2022-08-27T16:42:49;20.83;;;8.60;;
30571;SDS011;17348;50.948;10.696;2022-08-27T16:45:53;23.80;;;9.85;;
30571;SDS011;17348;50.948;10.696;2022-08-27T16:48:57;15.35;;;7.85;;
30571;SDS011;17348;50.948;10.696;2022-08-27T16:52:22;20.95;;;9.63;;
30571;SDS011;17348;50.948;10.696;2022-08-27T16:55:25;17.52;;;9.18;;
30571;SDS011;17348;50.948;10.696;2022-08-27T16:58:28;21.55;;;9.98;;
30571;SDS011;17348;50.948;10.696;2022-08-27T17:01:32;20.58;;;9.23;;
30571;SDS011;17348;50.948;10.696;2022-08-27T17:04:34;13.70;;;8.05;;
30571;SDS011;17348;50.948;10.696;2022-08-27T17:07:36;21.77;;;9.88;;
30571;SDS011;17348;50.948;10.696;2022-08-27T17:10:41;18.17;;;8.70;;
30571;SDS011;17348;50.948;10.696;2022-08-27T17:13:46;22.17;;;9.13;;
30571;SDS011;17348;50.948;10.696;2022-08-27T17:16:49;16.75;;;8.57;;
30571;SDS011;17348;50.948;10.696;2022-08-27T17:19:53;18.33;;;8.77;;
30571;SDS011;17348;50.948;10.696;2022-08-27T17:22:55;18.23;;;8.57;;
30571;SDS011;17348;50.948;10.696;2022-08-27T17:26:00;16.23;;;9.32;;
30571;SDS011;17348;50.948;10.696;2022-08-27T17:29:04;16.33;;;8.20;;
30571;SDS011;17348;50.948;10.696;2022-08-27T17:32:06;21.73;;;8.45;;
30571;SDS011;17348;50.948;10.696;2022-08-27T17:35:10;14.50;;;8.30;;
30571;SDS011;17348;50.948;10.696;2022-08-27T17:38:13;14.32;;;7.45;;
30571;SDS011;17348;50.948;10.696;2022-08-27T17:41:20;24.25;;;8.55;;
30571;SDS011;17348;50.948;10.696;2022-08-27T17:44:27;24.38;;;9.63;;
30571;SDS011;17348;50.948;10.696;2022-08-27T17:47:31;16.55;;;8.75;;
30571;SDS011;17348;50.948;10.696;2022-08-27T17:50:33;15.43;;;8.10;;
30571;SDS011;17348;50.948;10.696;2022-08-27T17:53:44;14.02;;;7.93;;
30571;SDS011;17348;50.948;10.696;2022-08-27T17:56:49;16.23;;;8.60;;
30571;SDS011;17348;50.948;10.696;2022-08-27T17:59:52;16.27;;;7.97;;
30571;SDS011;17348;50.948;10.696;2022-08-27T18:02:55;17.10;;;9.38;;
30571;SDS011;17348;50.948;10.696;2022-08-27T18:05:57;23.05;;;9.15;;
30571;SDS011;17348;50.948;10.696;2022-08-27T18:08:59;17.02;;;9.00;;